createdAt,value
2022-09-21T00:00:45.104Z,98395.09
2022-09-21T00:03:55.348Z,98404.22
2022-09-21T00:06:59.508Z,98412.09
2022-09-21T00:10:02.780Z,98416.47
2022-09-21T00:13:07.663Z,98427.69
2022-09-21T00:16:15.902Z,98433.03
2022-09-21T00:19:19.490Z,98441.75
2022-09-21T00:22:23.910Z,98446.91
2022-09-21T00:25:27.326Z,98450.25
2022-09-21T00:28:31.185Z,98464.00
2022-09-21T00:31:36.212Z,98460.44
2022-09-21T00:34:42.708Z,98462.94
2022-09-21T00:37:54.383Z,98467.75
2022-09-21T00:40:59.339Z,98478.38
2022-09-21T00:44:29.124Z,98478.97
2022-09-21T00:47:37.746Z,98482.56
2022-09-21T00:50:46.177Z,98494.97
2022-09-21T00:53:54.016Z,98503.84
2022-09-21T00:57:03.161Z,98502.44
2022-09-21T01:00:13.821Z,98499.69
2022-09-21T01:03:31.094Z,98510.47
2022-09-21T01:06:38.922Z,98509.66
2022-09-21T01:09:46.639Z,98498.63
2022-09-21T01:13:12.707Z,98502.19
2022-09-21T01:16:27.734Z,98488.69
2022-09-21T01:20:02.543Z,98487.81
2022-09-21T01:23:23.540Z,98489.78
2022-09-21T01:26:39.793Z,98480.69
2022-09-21T01:29:54.248Z,98482.63
2022-09-21T01:33:09.751Z,98483.75
2022-09-21T01:36:26.102Z,98476.56
2022-09-21T01:39:35.046Z,98475.38
2022-09-21T01:42:46.237Z,98471.91
2022-09-21T01:49:51.899Z,98464.97
2022-09-21T01:53:03.340Z,98472.25
2022-09-21T01:56:13.007Z,98474.59
2022-09-21T01:59:25.011Z,98475.16
2022-09-21T02:02:38.282Z,98480.69
2022-09-21T02:05:44.876Z,98485.50
2022-09-21T02:08:49.743Z,98481.94
2022-09-21T02:11:54.706Z,98479.03
2022-09-21T02:15:02.078Z,98483.47
2022-09-21T02:18:14.414Z,98486.34
2022-09-21T02:21:25.855Z,98497.59
2022-09-21T02:24:40.047Z,98492.44
2022-09-21T02:27:52.071Z,98512.63
2022-09-21T02:31:10.169Z,98511.28
2022-09-21T02:34:21.278Z,98516.00
2022-09-21T02:37:34.218Z,98520.72
2022-09-21T02:40:45.981Z,98524.28
2022-09-21T02:43:54.972Z,98515.19
2022-09-21T02:47:03.607Z,98522.94
2022-09-21T02:50:14.278Z,98522.94
2022-09-21T02:53:24.071Z,98522.94
2022-09-21T02:56:28.850Z,98527.06
2022-09-21T02:59:33.115Z,98531.19
2022-09-21T03:02:41.646Z,98526.09
2022-09-21T03:05:49.878Z,98533.31
2022-09-21T03:08:54.230Z,98531.09
2022-09-21T03:11:59.372Z,98531.25
2022-09-21T03:15:06.290Z,98533.41
2022-09-21T03:18:11.544Z,98524.03
2022-09-21T03:21:16.863Z,98527.63
2022-09-21T03:24:35.763Z,98526.41
2022-09-21T03:27:39.056Z,98512.91
2022-09-21T03:30:43.755Z,98489.84
2022-09-21T03:33:47.370Z,98484.31
2022-09-21T03:36:53.704Z,98464.72
2022-09-21T03:39:59.479Z,98445.28
2022-09-21T03:43:04.549Z,98421.25
2022-09-21T03:46:09.993Z,98408.69
2022-09-21T03:49:15.663Z,98384.38
2022-09-21T03:52:21.326Z,98368.16
2022-09-21T03:55:26.967Z,98358.28
2022-09-21T03:58:31.568Z,98347.13
2022-09-21T04:01:37.861Z,98346.72
2022-09-21T04:04:41.366Z,98345.06
2022-09-21T04:07:49.319Z,98333.34
2022-09-21T04:10:53.024Z,98332.16
2022-09-21T04:13:58.166Z,98331.81
2022-09-21T04:17:01.828Z,98332.13
2022-09-21T04:20:06.703Z,98333.97
2022-09-21T04:23:12.707Z,98334.44
2022-09-21T04:26:26.354Z,98328.28
2022-09-21T04:29:31.605Z,98324.66
2022-09-21T04:32:36.835Z,98319.34
2022-09-21T04:35:40.966Z,98325.06
2022-09-21T04:38:46.620Z,98314.19
2022-09-21T04:41:50.540Z,98307.56
2022-09-21T04:44:57.113Z,98305.28
2022-09-21T04:48:03.625Z,98294.25
2022-09-21T04:51:10.681Z,98296.97
2022-09-21T04:54:18.921Z,98297.28
2022-09-21T04:57:26.417Z,98287.88
2022-09-21T05:00:36.331Z,98289.63
2022-09-21T05:03:41.088Z,98295.72
2022-09-21T05:06:48.004Z,98307.75
2022-09-21T05:10:06.022Z,98308.34
2022-09-21T05:13:12.439Z,98321.09
2022-09-21T05:16:20.191Z,98328.59
2022-09-21T05:19:24.382Z,98332.78
2022-09-21T05:22:31.499Z,98341.88
2022-09-21T05:25:36.722Z,98350.03
2022-09-21T05:28:40.525Z,98371.38
2022-09-21T05:31:49.208Z,98388.28
2022-09-21T05:35:02.538Z,98397.78
2022-09-21T05:38:11.419Z,98419.81
2022-09-21T05:41:16.909Z,98430.16
2022-09-21T05:44:21.793Z,98452.34
2022-09-21T05:47:34.068Z,98467.03
2022-09-21T05:50:50.673Z,98488.63
2022-09-21T05:54:06.123Z,98493.59
2022-09-21T05:57:18.578Z,98505.22
2022-09-21T06:00:25.255Z,98526.81
2022-09-21T06:03:32.049Z,98542.25
2022-09-21T06:06:39.885Z,98551.16
2022-09-21T06:09:43.421Z,98556.72
2022-09-21T06:12:51.832Z,98566.19
2022-09-21T06:15:57.774Z,98572.38
2022-09-21T06:19:01.995Z,98582.34
2022-09-21T06:22:11.643Z,98595.88
2022-09-21T06:25:23.827Z,98601.22
2022-09-21T06:28:33.596Z,98614.38
2022-09-21T06:31:51.437Z,98631.25
2022-09-21T06:34:58.155Z,98639.31
2022-09-21T06:38:03.368Z,98644.63
2022-09-21T06:41:06.928Z,98648.53
2022-09-21T06:44:11.251Z,98649.69
2022-09-21T06:47:14.210Z,98655.38
2022-09-21T06:50:17.012Z,98666.25
2022-09-21T06:53:20.719Z,98669.69
2022-09-21T06:56:23.987Z,98673.75
2022-09-21T06:59:28.984Z,98686.69
2022-09-21T07:02:32.077Z,98698.63
2022-09-21T07:05:39.139Z,98713.06
2022-09-21T07:12:19.370Z,98735.66
2022-09-21T07:15:34.514Z,98736.28
2022-09-21T07:18:43.402Z,98735.50
2022-09-21T07:22:11.422Z,98746.75
2022-09-21T07:25:23.763Z,98752.06
2022-09-21T07:28:36.562Z,98761.75
2022-09-21T07:31:50.288Z,98765.25
2022-09-21T07:34:59.047Z,98760.44
2022-09-21T07:38:42.497Z,98763.94
2022-09-21T07:42:24.212Z,98771.59
2022-09-21T07:45:56.573Z,98765.31
2022-09-21T07:49:02.116Z,98765.31
2022-09-21T07:52:09.423Z,98761.50
2022-09-21T07:55:17.012Z,98746.56
2022-09-21T07:58:38.091Z,98751.28
2022-09-21T08:01:43.355Z,98740.81
2022-09-21T08:04:49.726Z,98737.38
2022-09-21T08:07:58.228Z,98724.66
2022-09-21T08:11:20.070Z,98714.56
2022-09-21T08:14:35.181Z,98707.50
2022-09-21T08:17:55.873Z,98695.19
2022-09-21T08:21:16.954Z,98677.75
2022-09-21T08:24:20.864Z,98660.56
2022-09-21T08:27:26.384Z,98647.25
2022-09-21T08:30:31.942Z,98633.09
2022-09-21T08:33:37.002Z,98632.50
2022-09-21T08:36:42.014Z,98606.97
2022-09-21T08:39:45.480Z,98572.88
2022-09-21T08:42:57.330Z,98544.25
2022-09-21T08:46:02.075Z,98503.22
2022-09-21T08:49:09.825Z,98464.88
2022-09-21T08:52:17.898Z,98431.56
2022-09-21T08:55:23.699Z,98399.97
2022-09-21T08:58:31.148Z,98371.69
2022-09-21T09:01:59.757Z,98364.91
2022-09-21T09:05:08.728Z,98353.91
2022-09-21T09:08:34.121Z,98313.94
2022-09-21T09:11:49.850Z,98295.75
2022-09-21T09:15:25.258Z,98279.59
2022-09-21T09:18:43.307Z,98260.91
2022-09-21T09:21:47.810Z,98248.06
2022-09-21T09:24:54.609Z,98237.53
2022-09-21T09:28:05.916Z,98224.72
2022-09-21T09:31:17.261Z,98220.09
2022-09-21T09:34:25.557Z,98202.94
2022-09-21T09:37:35.202Z,98203.94
2022-09-21T09:41:01.690Z,98203.25
2022-09-21T09:44:17.323Z,98198.34
2022-09-21T09:47:36.439Z,98188.75
2022-09-21T09:50:42.888Z,98197.84
2022-09-21T09:53:45.790Z,98194.72
2022-09-21T09:56:49.997Z,98202.78
2022-09-21T09:59:56.076Z,98199.00
2022-09-21T10:02:59.936Z,98200.78
2022-09-21T10:06:02.998Z,98213.00
2022-09-21T10:09:20.835Z,98224.69
2022-09-21T10:12:27.579Z,98225.31
2022-09-21T10:15:31.253Z,98231.59
2022-09-21T10:18:39.877Z,98242.78
2022-09-21T10:21:47.602Z,98236.44
2022-09-21T10:24:56.397Z,98247.56
2022-09-21T10:28:02.695Z,98267.22
2022-09-21T10:31:27.112Z,98276.47
2022-09-21T10:34:31.700Z,98288.63
2022-09-21T10:37:37.603Z,98275.69
2022-09-21T10:40:41.706Z,98267.09
2022-09-21T10:43:46.348Z,98265.63
2022-09-21T10:46:50.936Z,98263.41
2022-09-21T10:49:56.298Z,98266.00
2022-09-21T10:53:03.144Z,98235.84
2022-09-21T10:56:17.589Z,98265.97
2022-09-21T10:59:28.490Z,98271.72
2022-09-21T11:02:39.212Z,98273.56
2022-09-21T11:05:54.445Z,98286.81
2022-09-21T11:09:03.923Z,98283.72
2022-09-21T11:12:18.688Z,98285.78
2022-09-21T11:15:48.146Z,98272.88
2022-09-21T11:18:59.461Z,98279.19
2022-09-21T11:22:10.643Z,98280.09
2022-09-21T11:25:31.187Z,98275.47
2022-09-21T11:28:40.869Z,98278.63
2022-09-21T11:32:08.630Z,98294.16
2022-09-21T11:35:41.329Z,98303.75
2022-09-21T11:38:52.831Z,98298.47
2022-09-21T11:42:07.825Z,98296.66
2022-09-21T11:45:27.925Z,98275.69
2022-09-21T11:48:46.366Z,98274.00
2022-09-21T11:52:05.864Z,98276.91
2022-09-21T11:55:47.876Z,98264.03
2022-09-21T11:58:59.019Z,98273.28
2022-09-21T12:02:30.163Z,98273.63
2022-09-21T12:05:41.284Z,98282.91
2022-09-21T12:09:20.258Z,98275.81
2022-09-21T12:12:28.203Z,98262.25
2022-09-21T12:15:40.830Z,98251.22
2022-09-21T12:18:49.940Z,98258.31
2022-09-21T12:21:59.922Z,98253.53
2022-09-21T12:25:07.598Z,98258.50
2022-09-21T12:28:18.774Z,98262.09
2022-09-21T12:31:27.412Z,98254.16
2022-09-21T12:34:40.258Z,98254.41
2022-09-21T12:37:50.476Z,98249.91
2022-09-21T12:40:57.303Z,98256.75
2022-09-21T12:44:19.477Z,98258.41
2022-09-21T12:47:34.423Z,98275.25
2022-09-21T12:50:42.083Z,98275.53
2022-09-21T12:53:51.134Z,98268.38
2022-09-21T12:57:17.624Z,98270.47
2022-09-21T13:00:31.776Z,98262.22
2022-09-21T13:03:43.894Z,98258.50
2022-09-21T13:07:10.713Z,98252.69
2022-09-21T13:10:22.958Z,98261.31
2022-09-21T13:13:30.629Z,98274.31
2022-09-21T13:16:38.626Z,98274.72
2022-09-21T13:19:41.852Z,98269.00
2022-09-21T13:22:45.940Z,98260.56
2022-09-21T13:25:59.716Z,98263.63
2022-09-21T13:29:27.925Z,98266.28
2022-09-21T13:32:52.074Z,98270.25
2022-09-21T13:36:03.877Z,98265.84
2022-09-21T13:39:18.948Z,98271.63
2022-09-21T13:42:48.753Z,98262.72
2022-09-21T13:46:00.488Z,98261.06
2022-09-21T13:49:07.082Z,98262.09
2022-09-21T13:52:27.733Z,98257.50
2022-09-21T13:55:33.221Z,98245.94
2022-09-21T13:58:43.987Z,98242.28
2022-09-21T14:01:47.944Z,98226.06
2022-09-21T14:04:52.718Z,98236.97
2022-09-21T14:07:58.105Z,98241.25
2022-09-21T14:11:09.814Z,98242.06
2022-09-21T14:14:24.672Z,98238.81
2022-09-21T14:17:39.025Z,98241.38
2022-09-21T14:21:08.194Z,98230.72
2022-09-21T14:24:24.092Z,98225.00
2022-09-21T14:27:32.130Z,98226.53
2022-09-21T14:30:38.117Z,98225.22
2022-09-21T14:33:49.606Z,98216.78
2022-09-21T14:36:57.621Z,98218.59
2022-09-21T14:40:04.118Z,98202.56
2022-09-21T14:43:10.502Z,98204.38
2022-09-21T14:46:40.671Z,98207.34
2022-09-21T14:50:10.628Z,98195.28
2022-09-21T14:53:39.796Z,98193.47
2022-09-21T14:56:59.410Z,98200.06
2022-09-21T15:00:15.738Z,98189.03
2022-09-21T15:03:51.295Z,98213.00
2022-09-21T15:07:19.027Z,98228.06
2022-09-21T15:10:44.215Z,98237.34
2022-09-21T15:14:04.740Z,98227.94
2022-09-21T15:17:24.190Z,98234.41
2022-09-21T15:20:30.557Z,98229.81
2022-09-21T15:23:34.922Z,98227.00
2022-09-21T15:26:40.573Z,98226.53
2022-09-21T15:29:49.224Z,98231.50
2022-09-21T15:32:56.701Z,98224.56
2022-09-21T15:36:04.152Z,98228.53
2022-09-21T15:39:07.941Z,98219.28
2022-09-21T15:42:23.332Z,98222.59
2022-09-21T15:45:28.705Z,98224.25
2022-09-21T15:48:36.225Z,98219.81
2022-09-21T15:51:45.825Z,98219.19
2022-09-21T15:54:53.826Z,98224.53
2022-09-21T15:57:57.916Z,98221.41
2022-09-21T16:01:01.437Z,98217.28
2022-09-21T16:04:08.124Z,98209.88
2022-09-21T16:07:29.242Z,98213.81
2022-09-21T16:10:40.374Z,98202.47
2022-09-21T16:14:04.500Z,98205.97
2022-09-21T16:17:22.413Z,98195.16
2022-09-21T16:20:38.191Z,98183.28
2022-09-21T16:23:42.988Z,98166.84
2022-09-21T16:26:59.130Z,98165.75
2022-09-21T16:30:04.848Z,98141.22
2022-09-21T16:33:41.392Z,98111.25
2022-09-21T16:36:50.395Z,98097.75
2022-09-21T16:39:57.774Z,98082.56
2022-09-21T16:43:05.186Z,98083.84
2022-09-21T16:46:15.292Z,98079.44
2022-09-21T16:49:20.773Z,98081.28
2022-09-21T16:52:24.594Z,98076.66
2022-09-21T16:55:35.420Z,98069.44
2022-09-21T16:58:46.174Z,98068.72
2022-09-21T17:01:56.353Z,98072.56
2022-09-21T17:05:00.274Z,98061.41
2022-09-21T17:08:07.303Z,98054.00
2022-09-21T17:11:14.726Z,98056.13
2022-09-21T17:14:18.889Z,98055.94
2022-09-21T17:17:23.993Z,98054.00
2022-09-21T17:20:32.190Z,98053.22
2022-09-21T17:23:35.261Z,98065.25
2022-09-21T17:26:39.589Z,98063.63
2022-09-21T17:29:48.070Z,98064.41
2022-09-21T17:32:50.872Z,98066.91
2022-09-21T17:35:56.601Z,98062.81
2022-09-21T17:38:59.525Z,98068.72
2022-09-21T17:42:11.831Z,98075.13
2022-09-21T17:45:22.391Z,98077.78
2022-09-21T17:48:27.747Z,98072.16
2022-09-21T17:51:51.571Z,98075.47
2022-09-21T17:54:54.913Z,98070.69
2022-09-21T17:58:18.975Z,98086.31
2022-09-21T18:01:31.146Z,98084.03
2022-09-21T18:04:35.170Z,98083.69
2022-09-21T18:07:38.704Z,98091.25
2022-09-21T18:10:45.633Z,98092.66
2022-09-21T18:14:00.190Z,98088.94
2022-09-21T18:17:30.724Z,98095.63
2022-09-21T18:20:46.364Z,98091.97
2022-09-21T18:24:15.985Z,98097.56
2022-09-21T18:27:20.077Z,98091.31
2022-09-21T18:30:25.932Z,98109.06
2022-09-21T18:33:39.211Z,98092.31
2022-09-21T18:36:48.912Z,98103.19
2022-09-21T18:40:02.557Z,98102.50
2022-09-21T18:43:18.751Z,98094.22
2022-09-21T18:46:33.337Z,98096.75
2022-09-21T18:49:51.201Z,98103.19
2022-09-21T18:53:02.133Z,98105.09
2022-09-21T18:56:05.922Z,98103.44
2022-09-21T18:59:13.030Z,98100.75
2022-09-21T19:02:20.405Z,98108.38
2022-09-21T19:05:24.347Z,98096.22
2022-09-21T19:08:37.644Z,98103.75
2022-09-21T19:11:46.754Z,98099.28
2022-09-21T19:15:00.260Z,98096.00
2022-09-21T19:18:16.260Z,98094.28
2022-09-21T19:21:29.115Z,98096.59
2022-09-21T19:24:37.378Z,98094.03
2022-09-21T19:27:45.530Z,98098.25
2022-09-21T19:30:52.274Z,98100.72
2022-09-21T19:33:58.306Z,98101.75
2022-09-21T19:37:06.972Z,98111.41
2022-09-21T19:40:11.781Z,98115.94
2022-09-21T19:43:22.734Z,98117.59
2022-09-21T19:46:34.456Z,98119.28
2022-09-21T19:49:48.333Z,98112.78
2022-09-21T19:52:52.512Z,98126.13
2022-09-21T19:56:16.796Z,98129.16
2022-09-21T19:59:37.709Z,98126.06
2022-09-21T20:02:48.955Z,98122.56
2022-09-21T20:05:59.122Z,98132.75
2022-09-21T20:09:09.984Z,98128.50
2022-09-21T20:12:19.754Z,98139.84
2022-09-21T20:15:29.479Z,98146.56
2022-09-21T20:18:40.787Z,98142.16
2022-09-21T20:21:48.045Z,98140.31
2022-09-21T20:24:56.347Z,98156.44
2022-09-21T20:28:00.266Z,98157.03
2022-09-21T20:31:04.670Z,98162.75
2022-09-21T20:34:07.445Z,98151.97
2022-09-21T20:37:13.643Z,98147.38
2022-09-21T20:40:17.439Z,98156.97
2022-09-21T20:43:23.113Z,98160.56
2022-09-21T20:46:26.278Z,98159.75
2022-09-21T20:49:29.176Z,98159.56
2022-09-21T20:52:34.060Z,98162.63
2022-09-21T20:55:37.169Z,98162.63
2022-09-21T20:58:40.255Z,98168.94
2022-09-21T21:01:43.330Z,98167.41
2022-09-21T21:04:47.111Z,98169.19
2022-09-21T21:07:51.373Z,98173.63
2022-09-21T21:10:56.834Z,98170.81
2022-09-21T21:13:59.623Z,98180.03
2022-09-21T21:17:03.332Z,98187.38
2022-09-21T21:20:07.592Z,98196.44
2022-09-21T21:23:11.970Z,98195.66
2022-09-21T21:26:14.815Z,98204.78
2022-09-21T21:29:17.759Z,98212.28
2022-09-21T21:32:23.198Z,98214.59
2022-09-21T21:35:26.013Z,98215.81
2022-09-21T21:38:30.322Z,98219.97
2022-09-21T21:41:33.307Z,98219.84
2022-09-21T21:44:36.167Z,98223.03
2022-09-21T21:47:40.812Z,98231.31
2022-09-21T21:50:44.140Z,98217.78
2022-09-21T21:53:48.412Z,98213.94
2022-09-21T21:56:52.401Z,98212.97
2022-09-21T21:59:55.217Z,98208.28
2022-09-21T22:02:58.052Z,98207.19
2022-09-21T22:06:00.874Z,98210.78
2022-09-21T22:09:06.807Z,98209.81
2022-09-21T22:12:11.234Z,98217.28
2022-09-21T22:15:14.295Z,98212.59
2022-09-21T22:18:17.429Z,98211.34
2022-09-21T22:21:23.122Z,98201.31
2022-09-21T22:24:27.498Z,98203.00
2022-09-21T22:27:31.044Z,98210.84
2022-09-21T22:30:34.540Z,98208.47
2022-09-21T22:33:38.484Z,98206.59
2022-09-21T22:36:43.673Z,98211.69
2022-09-21T22:39:48.589Z,98221.47
2022-09-21T22:42:51.448Z,98228.66
2022-09-21T22:45:55.298Z,98229.59
2022-09-21T22:48:58.315Z,98235.97
2022-09-21T22:52:01.314Z,98233.88
2022-09-21T22:55:06.330Z,98234.59
2022-09-21T22:58:09.310Z,98238.03
2022-09-21T23:01:14.508Z,98233.06
2022-09-21T23:04:17.851Z,98240.78
2022-09-21T23:07:20.750Z,98243.00
2022-09-21T23:10:26.688Z,98239.81
2022-09-21T23:13:30.346Z,98246.72
2022-09-21T23:16:33.945Z,98244.66
2022-09-21T23:19:37.313Z,98246.03
2022-09-21T23:22:41.028Z,98242.28
2022-09-21T23:25:45.392Z,98246.56
2022-09-21T23:28:52.846Z,98249.59
2022-09-21T23:31:56.756Z,98249.59
2022-09-21T23:35:03.476Z,98254.94
2022-09-21T23:38:06.732Z,98254.25
2022-09-21T23:41:14.089Z,98245.72
2022-09-21T23:44:17.163Z,98249.72
2022-09-21T23:47:20.178Z,98243.53
2022-09-21T23:50:23.318Z,98241.63
2022-09-21T23:53:28.994Z,98241.19
2022-09-21T23:56:35.809Z,98228.75
2022-09-21T23:59:39.093Z,98234.09
